createdAt,value
2019-06-07T00:00:38.193Z,10.18
2019-06-07T00:01:25.338Z,10.14
2019-06-07T00:02:25.390Z,10.17
2019-06-07T00:03:29.934Z,10.06
2019-06-07T00:04:25.501Z,9.99
2019-06-07T00:05:25.557Z,10.02
2019-06-07T00:06:26.063Z,10.01
2019-06-07T00:07:25.671Z,9.98
2019-06-07T00:08:28.987Z,9.99
2019-06-07T00:09:25.781Z,10.02
2019-06-07T00:10:35.809Z,10.04
2019-06-07T00:11:25.892Z,9.99
2019-06-07T00:12:25.949Z,10.02
2019-06-07T00:13:26.025Z,10.04
2019-06-07T00:14:26.060Z,9.91
2019-06-07T00:15:28.911Z,9.96
2019-06-07T00:16:26.170Z,9.92
2019-06-07T00:17:26.248Z,9.96
2019-06-07T00:18:26.391Z,9.92
2019-06-07T00:19:26.342Z,9.98
2019-06-07T00:20:26.395Z,9.89
2019-06-07T00:22:12.735Z,9.86
2019-06-07T00:22:32.902Z,9.92
2019-06-07T00:23:26.596Z,9.80
2019-06-07T00:24:26.615Z,9.83
2019-06-07T00:25:26.672Z,9.83
2019-06-07T00:26:26.726Z,9.91
2019-06-07T00:27:26.785Z,9.92
2019-06-07T00:28:26.837Z,9.86
2019-06-07T00:29:26.896Z,10.01
2019-06-07T00:30:41.081Z,9.93
2019-06-07T00:31:27.006Z,10.01
2019-06-07T00:32:27.062Z,10.01
2019-06-07T00:33:27.116Z,10.01
2019-06-07T00:34:27.171Z,10.07
2019-06-07T00:35:27.227Z,10.06
2019-06-07T00:36:27.282Z,10.06
2019-06-07T00:37:27.340Z,9.93
2019-06-07T00:38:27.413Z,9.95
2019-06-07T00:39:27.449Z,10.02
2019-06-07T00:40:32.010Z,9.99
2019-06-07T00:41:27.585Z,9.83
2019-06-07T00:42:27.619Z,9.83
2019-06-07T00:43:28.614Z,9.80
2019-06-07T00:44:27.745Z,9.89
2019-06-07T00:45:27.783Z,9.81
2019-06-07T00:46:27.837Z,9.85
2019-06-07T00:47:27.894Z,9.83
2019-06-07T00:48:32.581Z,9.75
2019-06-07T00:49:40.362Z,9.85
2019-06-07T00:50:28.061Z,9.85
2019-06-07T00:51:47.569Z,9.83
2019-06-07T00:53:32.150Z,9.83
2019-06-07T00:54:28.282Z,10.07
2019-06-07T00:55:28.338Z,9.96
2019-06-07T00:56:28.395Z,10.04
2019-06-07T00:57:28.452Z,9.95
2019-06-07T00:58:29.546Z,9.88
2019-06-07T00:59:29.738Z,9.86
2019-06-07T01:00:28.615Z,9.73
2019-06-07T01:01:28.670Z,9.73
2019-06-07T01:02:31.472Z,9.80
2019-06-07T01:03:28.782Z,9.96
2019-06-07T01:04:28.959Z,9.96
2019-06-07T01:05:31.332Z,9.98
2019-06-07T01:06:28.948Z,9.96
2019-06-07T01:07:29.004Z,9.91
2019-06-07T01:08:30.269Z,9.89
2019-06-07T01:09:29.118Z,9.85
2019-06-07T01:10:52.410Z,9.88
2019-06-07T01:11:29.224Z,9.93
2019-06-07T01:12:29.281Z,9.86
2019-06-07T01:13:29.381Z,9.96
2019-06-07T01:14:29.416Z,9.83
2019-06-07T01:15:29.527Z,9.89
2019-06-07T01:16:53.067Z,9.83
2019-06-07T01:17:40.855Z,9.80
2019-06-07T01:18:42.917Z,9.77
2019-06-07T01:19:29.670Z,9.85
2019-06-07T01:20:29.774Z,9.92
2019-06-07T01:21:30.108Z,9.85
2019-06-07T01:22:29.835Z,9.86
2019-06-07T01:24:29.947Z,9.73
2019-06-07T01:25:30.059Z,9.78
2019-06-07T01:26:30.575Z,9.78
2019-06-07T01:27:30.114Z,9.77
2019-06-07T01:28:30.390Z,9.68
2019-06-07T01:29:31.197Z,9.83
2019-06-07T01:30:30.282Z,9.85
2019-06-07T01:31:31.539Z,9.86
2019-06-07T01:32:31.830Z,9.92
2019-06-07T01:33:49.918Z,9.93
2019-06-07T01:34:30.504Z,9.93
2019-06-07T01:35:30.561Z,9.98
2019-06-07T01:36:31.094Z,10.06
2019-06-07T01:37:30.672Z,9.95
2019-06-07T01:38:30.727Z,9.99
2019-06-07T01:39:31.874Z,9.98
2019-06-07T01:40:32.915Z,9.92
2019-06-07T01:41:31.065Z,9.93
2019-06-07T01:42:31.208Z,10.01
2019-06-07T01:43:31.318Z,10.04
2019-06-07T01:44:31.467Z,9.92
2019-06-07T01:45:31.314Z,9.83
2019-06-07T01:46:31.206Z,9.86
2019-06-07T01:47:31.998Z,9.85
2019-06-07T01:48:48.586Z,9.86
2019-06-07T01:49:31.340Z,9.85
2019-06-07T01:50:31.440Z,9.85
2019-06-07T01:51:31.450Z,9.89
2019-06-07T01:52:31.505Z,9.86
2019-06-07T01:53:31.838Z,9.89
2019-06-07T01:55:32.755Z,9.80
2019-06-07T01:56:31.728Z,9.80
2019-06-07T01:57:45.476Z,9.70
2019-06-07T01:58:31.838Z,9.78
2019-06-07T01:59:32.126Z,9.80
2019-06-07T02:00:32.716Z,9.83
2019-06-07T02:01:35.289Z,9.83
2019-06-07T02:02:32.062Z,9.83
2019-06-07T02:03:33.103Z,9.78
2019-06-07T02:04:33.365Z,9.81
2019-06-07T02:05:32.507Z,9.80
2019-06-07T02:06:32.402Z,9.73
2019-06-07T02:07:33.377Z,9.71
2019-06-07T02:08:34.360Z,9.70
2019-06-07T02:09:32.466Z,9.81
2019-06-07T02:10:33.766Z,9.75
2019-06-07T02:11:33.692Z,9.86
2019-06-07T02:12:42.364Z,9.83
2019-06-07T02:13:32.673Z,9.80
2019-06-07T02:14:33.777Z,9.78
2019-06-07T02:15:36.776Z,9.73
2019-06-07T02:16:32.839Z,9.73
2019-06-07T02:17:33.355Z,9.85
2019-06-07T02:18:34.928Z,9.73
2019-06-07T02:19:33.548Z,9.78
2019-06-07T02:20:34.417Z,9.71
2019-06-07T02:21:34.461Z,9.77
2019-06-07T02:22:33.170Z,9.83
2019-06-07T02:23:33.776Z,9.81
2019-06-07T02:24:35.783Z,9.77
2019-06-07T02:25:45.520Z,9.83
2019-06-07T02:26:33.396Z,9.78
2019-06-07T02:27:33.452Z,9.78
2019-06-07T02:28:44.418Z,9.71
2019-06-07T02:29:33.895Z,9.67
2019-06-07T02:30:45.871Z,9.71
2019-06-07T02:31:39.051Z,9.67
2019-06-07T02:32:36.654Z,9.67
2019-06-07T02:33:39.711Z,9.70
2019-06-07T02:34:38.827Z,9.73
2019-06-07T02:35:40.526Z,9.63
2019-06-07T02:36:41.056Z,9.70
2019-06-07T02:37:36.772Z,9.63
2019-06-07T02:38:37.514Z,9.74
2019-06-07T02:39:38.109Z,9.67
2019-06-07T02:40:37.258Z,9.71
2019-06-07T02:41:39.352Z,9.71
2019-06-07T02:42:38.956Z,9.63
2019-06-07T02:43:36.930Z,9.68
2019-06-07T02:44:38.916Z,9.75
2019-06-07T02:45:42.566Z,9.70
2019-06-07T02:46:44.798Z,9.77
2019-06-07T02:47:37.656Z,9.67
2019-06-07T02:48:39.818Z,9.71
2019-06-07T02:49:41.156Z,9.60
2019-06-07T02:50:37.988Z,9.65
2019-06-07T02:51:41.093Z,9.63
2019-06-07T02:52:40.391Z,9.63
2019-06-07T02:53:40.060Z,9.48
2019-06-07T02:54:39.824Z,9.48
2019-06-07T02:56:26.541Z,9.44
2019-06-07T02:56:48.734Z,9.35
2019-06-07T02:57:36.996Z,9.49
2019-06-07T02:58:41.165Z,9.55
2019-06-07T03:00:04.289Z,9.58
2019-06-07T03:01:00.091Z,9.50
2019-06-07T03:01:39.418Z,9.59
2019-06-07T03:02:41.014Z,9.42
2019-06-07T03:03:39.582Z,9.50
2019-06-07T03:04:41.556Z,9.45
2019-06-07T03:05:40.297Z,9.55
2019-06-07T03:06:39.529Z,9.58
2019-06-07T03:07:39.128Z,9.37
2019-06-07T03:08:36.761Z,9.32
2019-06-07T03:09:37.150Z,9.35
2019-06-07T03:10:37.743Z,9.37
2019-06-07T03:11:37.624Z,9.27
2019-06-07T03:12:35.937Z,9.35
2019-06-07T03:13:37.407Z,9.35
2019-06-07T03:14:36.046Z,9.41
2019-06-07T03:15:47.738Z,9.31
2019-06-07T03:16:37.287Z,9.31
2019-06-07T03:17:38.378Z,9.24
2019-06-07T03:18:36.543Z,9.31
2019-06-07T03:19:37.850Z,9.23
2019-06-07T03:20:36.889Z,9.24
2019-06-07T03:21:36.550Z,9.22
2019-06-07T03:22:39.944Z,9.13
2019-06-07T03:23:36.542Z,9.08
2019-06-07T03:24:41.682Z,9.17
2019-06-07T03:25:37.369Z,9.00
2019-06-07T03:27:23.992Z,9.03
2019-06-07T03:27:48.867Z,9.23
2019-06-07T03:28:39.173Z,9.17
2019-06-07T03:29:36.874Z,9.12
2019-06-07T03:30:52.781Z,9.13
2019-06-07T03:31:42.793Z,9.19
2019-06-07T03:32:46.434Z,9.30
2019-06-07T03:33:42.918Z,9.31
2019-06-07T03:34:41.235Z,9.23
2019-06-07T03:35:37.678Z,9.15
2019-06-07T03:36:40.033Z,9.16
2019-06-07T03:37:40.645Z,9.19
2019-06-07T03:38:39.658Z,9.26
2019-06-07T03:39:40.947Z,9.31
2019-06-07T03:40:39.948Z,9.19
2019-06-07T03:41:49.906Z,9.26
2019-06-07T03:42:38.766Z,9.12
2019-06-07T03:43:40.453Z,9.13
2019-06-07T03:44:40.626Z,9.23
2019-06-07T03:45:41.235Z,9.24
2019-06-07T03:46:41.190Z,9.27
2019-06-07T03:47:41.375Z,9.32
2019-06-07T03:48:41.167Z,9.37
2019-06-07T03:49:42.132Z,9.24
2019-06-07T03:50:41.933Z,9.27
2019-06-07T03:51:39.637Z,9.32
2019-06-07T03:52:40.637Z,9.27
2019-06-07T03:53:40.760Z,9.20
2019-06-07T03:54:39.897Z,9.22
2019-06-07T03:55:41.185Z,9.13
2019-06-07T03:56:40.967Z,9.16
2019-06-07T03:58:29.340Z,9.20
2019-06-07T03:58:49.033Z,9.26
2019-06-07T03:59:41.236Z,9.23
2019-06-07T04:00:42.582Z,9.24
2019-06-07T04:01:41.140Z,9.32
2019-06-07T04:02:41.867Z,9.42
2019-06-07T04:03:46.352Z,9.52
2019-06-07T04:04:39.917Z,9.55
2019-06-07T04:05:43.350Z,9.49
2019-06-07T04:06:41.958Z,9.50
2019-06-07T04:07:43.709Z,9.52
2019-06-07T04:08:42.086Z,9.50
2019-06-07T04:09:42.669Z,9.55
2019-06-07T04:10:55.838Z,9.63
2019-06-07T04:11:40.820Z,9.67
2019-06-07T04:12:43.797Z,9.73
2019-06-07T04:13:42.943Z,9.68
2019-06-07T04:14:42.511Z,9.60
2019-06-07T04:15:41.322Z,9.67
2019-06-07T04:16:44.121Z,9.60
2019-06-07T04:17:55.917Z,9.58
2019-06-07T04:18:40.760Z,9.49
2019-06-07T04:19:43.293Z,9.37
2019-06-07T04:20:41.425Z,9.35
2019-06-07T04:21:42.697Z,9.42
2019-06-07T04:22:42.622Z,9.37
2019-06-07T04:23:45.290Z,9.31
2019-06-07T04:24:41.933Z,9.37
2019-06-07T04:25:42.596Z,9.34
2019-06-07T04:26:43.557Z,9.34
2019-06-07T04:27:41.058Z,9.48
2019-06-07T04:29:30.816Z,9.53
2019-06-07T04:30:04.311Z,9.60
2019-06-07T04:30:41.800Z,9.67
2019-06-07T04:31:42.841Z,9.53
2019-06-07T04:32:44.754Z,9.55
2019-06-07T04:33:43.633Z,9.42
2019-06-07T04:34:43.034Z,9.41
2019-06-07T04:35:42.891Z,9.48
2019-06-07T04:36:55.291Z,9.53
2019-06-07T04:37:41.460Z,9.50
2019-06-07T04:38:42.640Z,9.50
2019-06-07T04:39:44.667Z,9.55
2019-06-07T04:40:42.942Z,9.56
2019-06-07T04:41:41.052Z,9.53
2019-06-07T04:42:44.777Z,9.56
2019-06-07T04:43:41.286Z,9.70
2019-06-07T04:44:42.751Z,9.63
2019-06-07T04:45:50.278Z,9.60
2019-06-07T04:46:42.815Z,9.81
2019-06-07T04:47:42.392Z,9.93
2019-06-07T04:48:43.319Z,9.81
2019-06-07T04:49:44.080Z,9.85
2019-06-07T04:50:44.080Z,9.80
2019-06-07T04:51:42.368Z,9.68
2019-06-07T04:52:44.836Z,9.67
2019-06-07T04:53:43.355Z,9.65
2019-06-07T04:54:45.760Z,9.59
2019-06-07T04:55:42.184Z,9.71
2019-06-07T04:56:44.463Z,9.68
2019-06-07T04:57:43.087Z,9.73
2019-06-07T04:58:43.116Z,9.65
2019-06-07T05:00:10.531Z,9.81
2019-06-07T05:00:55.649Z,9.85
2019-06-07T05:01:42.783Z,9.86
2019-06-07T05:02:43.397Z,9.95
2019-06-07T05:03:44.237Z,10.07
2019-06-07T05:04:42.586Z,9.98
2019-06-07T05:05:43.865Z,9.98
2019-06-07T05:06:42.569Z,9.99
2019-06-07T05:07:45.981Z,10.06
2019-06-07T05:08:43.850Z,10.10
2019-06-07T05:09:43.359Z,10.06
2019-06-07T05:10:43.872Z,10.07
2019-06-07T05:11:44.864Z,10.06
2019-06-07T05:12:44.302Z,10.10
2019-06-07T05:13:43.846Z,10.09
2019-06-07T05:14:44.336Z,10.16
2019-06-07T05:15:42.723Z,10.13
2019-06-07T05:16:44.356Z,10.20
2019-06-07T05:17:44.949Z,10.20
2019-06-07T05:18:43.379Z,10.20
2019-06-07T05:19:44.553Z,10.17
2019-06-07T05:20:44.442Z,10.44
2019-06-07T05:22:01.519Z,10.42
2019-06-07T05:22:45.241Z,10.52
2019-06-07T05:24:05.737Z,10.35
2019-06-07T05:24:43.892Z,10.49
2019-06-07T05:25:44.783Z,10.51
2019-06-07T05:26:43.339Z,10.58
2019-06-07T05:27:46.766Z,10.70
2019-06-07T05:28:43.450Z,10.83
2019-06-07T05:29:44.302Z,10.80
2019-06-07T05:31:03.747Z,10.73
2019-06-07T05:31:45.502Z,10.78
2019-06-07T05:32:46.117Z,10.93
2019-06-07T05:33:43.784Z,10.90
2019-06-07T05:34:47.232Z,10.90
2019-06-07T05:35:44.266Z,10.94
2019-06-07T05:36:45.069Z,10.87
2019-06-07T05:37:48.203Z,10.93
2019-06-07T05:38:44.863Z,10.93
2019-06-07T05:39:46.463Z,10.94
2019-06-07T05:40:48.722Z,11.06
2019-06-07T05:41:44.574Z,11.05
2019-06-07T05:42:46.692Z,11.05
2019-06-07T05:43:55.082Z,11.02
2019-06-07T05:44:45.822Z,11.12
2019-06-07T05:45:46.848Z,11.23
2019-06-07T05:46:47.230Z,11.23
2019-06-07T05:47:50.862Z,11.16
2019-06-07T05:48:44.580Z,11.09
2019-06-07T05:49:47.118Z,11.20
2019-06-07T05:50:55.347Z,11.05
2019-06-07T05:51:45.286Z,11.05
2019-06-07T05:52:47.484Z,11.16
2019-06-07T05:53:45.967Z,11.30
2019-06-07T05:54:45.537Z,11.49
2019-06-07T05:55:47.513Z,11.60
2019-06-07T05:56:45.490Z,11.67
2019-06-07T05:57:49.112Z,11.75
2019-06-07T05:58:45.147Z,11.87
2019-06-07T05:59:47.565Z,12.11
2019-06-07T06:00:47.597Z,12.15
2019-06-07T06:01:55.947Z,12.23
2019-06-07T06:03:04.341Z,12.22
2019-06-07T06:03:48.045Z,12.13
2019-06-07T06:04:49.007Z,12.19
2019-06-07T06:05:53.769Z,12.23
2019-06-07T06:06:47.371Z,12.31
2019-06-07T06:07:50.677Z,12.44
2019-06-07T06:08:47.902Z,12.23
2019-06-07T06:09:46.173Z,12.31
2019-06-07T06:10:48.639Z,12.38
2019-06-07T06:11:59.706Z,12.43
2019-06-07T06:12:51.504Z,12.59
2019-06-07T06:14:05.642Z,12.63
2019-06-07T06:14:47.078Z,12.73
2019-06-07T06:16:00.572Z,12.69
2019-06-07T06:16:49.397Z,12.81
2019-06-07T06:17:49.985Z,12.87
2019-06-07T06:18:47.706Z,12.76
2019-06-07T06:19:52.030Z,12.76
2019-06-07T06:21:09.759Z,12.92
2019-06-07T06:21:46.574Z,13.06
2019-06-07T06:22:48.714Z,13.07
2019-06-07T06:23:50.759Z,13.10
2019-06-07T06:25:17.774Z,13.07
2019-06-07T06:25:55.605Z,12.94
2019-06-07T06:26:52.242Z,13.03
2019-06-07T06:28:49.451Z,13.12
2019-06-07T06:29:50.090Z,13.27
2019-06-07T06:30:48.021Z,13.35
2019-06-07T06:32:39.183Z,13.44
2019-06-07T06:32:56.911Z,13.44
2019-06-07T06:33:49.556Z,13.38
2019-06-07T06:34:50.703Z,13.62
2019-06-07T06:35:49.409Z,13.54
2019-06-07T06:36:50.356Z,13.68
2019-06-07T06:37:52.962Z,13.66
2019-06-07T06:38:49.840Z,13.83
2019-06-07T06:39:49.966Z,14.08
2019-06-07T06:40:54.788Z,14.20
2019-06-07T06:41:58.473Z,14.13
2019-06-07T06:42:50.095Z,14.27
2019-06-07T06:43:52.110Z,14.31
2019-06-07T06:44:53.618Z,14.19
2019-06-07T06:45:50.575Z,14.36
2019-06-07T06:46:57.020Z,14.42
2019-06-07T06:47:50.538Z,14.49
2019-06-07T06:48:54.485Z,14.60
2019-06-07T06:49:50.017Z,14.69
2019-06-07T06:50:52.235Z,14.75
2019-06-07T06:51:53.358Z,14.86
2019-06-07T06:52:53.456Z,14.94
2019-06-07T06:53:49.889Z,15.11
2019-06-07T06:54:55.386Z,14.93
2019-06-07T06:55:51.175Z,15.15
2019-06-07T06:56:52.041Z,15.05
2019-06-07T06:57:51.189Z,15.05
2019-06-07T06:59:30.748Z,15.09
2019-06-07T06:59:51.111Z,15.07
2019-06-07T07:00:56.886Z,15.07
2019-06-07T07:01:50.959Z,15.07
2019-06-07T07:03:41.813Z,15.28
2019-06-07T07:04:06.799Z,15.34
2019-06-07T07:04:52.540Z,15.31
2019-06-07T07:05:50.828Z,15.34
2019-06-07T07:06:50.627Z,15.38
2019-06-07T07:07:51.625Z,15.34
2019-06-07T07:08:50.911Z,15.40
2019-06-07T07:09:54.750Z,15.43
2019-06-07T07:10:52.662Z,15.55
2019-06-07T07:12:04.174Z,15.52
2019-06-07T07:12:51.203Z,15.38
2019-06-07T07:13:55.769Z,15.43
2019-06-07T07:14:52.155Z,15.53
2019-06-07T07:15:55.202Z,15.58
2019-06-07T07:16:54.560Z,15.60
2019-06-07T07:18:03.704Z,15.58
2019-06-07T07:18:52.919Z,15.59
2019-06-07T07:19:52.155Z,15.64
2019-06-07T07:20:51.283Z,15.93
2019-06-07T07:21:52.959Z,15.91
2019-06-07T07:22:53.583Z,15.85
2019-06-07T07:24:15.166Z,16.06
2019-06-07T07:24:53.341Z,16.06
2019-06-07T07:25:55.376Z,16.03
2019-06-07T07:26:53.149Z,16.10
2019-06-07T07:27:53.838Z,16.03
2019-06-07T07:28:51.762Z,16.11
2019-06-07T07:30:10.264Z,16.26
2019-06-07T07:30:54.856Z,16.32
2019-06-07T07:31:53.810Z,16.51
2019-06-07T07:32:52.991Z,16.65
2019-06-07T07:34:54.509Z,16.60
2019-06-07T07:36:11.904Z,16.73
2019-06-07T07:36:57.897Z,16.78
2019-06-07T07:37:55.833Z,16.81
2019-06-07T07:39:00.437Z,16.78
2019-06-07T07:39:54.297Z,16.73
2019-06-07T07:41:13.321Z,16.81
2019-06-07T07:42:13.776Z,16.87
2019-06-07T07:42:54.574Z,16.98
2019-06-07T07:43:59.989Z,17.09
2019-06-07T07:44:54.598Z,16.81
2019-06-07T07:45:59.069Z,16.82
2019-06-07T07:46:53.838Z,16.91
2019-06-07T07:48:08.792Z,17.02
2019-06-07T07:48:54.243Z,17.09
2019-06-07T07:49:52.985Z,16.92
2019-06-07T07:50:56.899Z,17.14
2019-06-07T07:51:55.037Z,17.32
2019-06-07T07:52:59.200Z,17.25
2019-06-07T07:54:02.081Z,17.18
2019-06-07T07:54:52.816Z,17.14
2019-06-07T07:55:56.612Z,17.47
2019-06-07T07:56:55.611Z,17.60
2019-06-07T07:58:00.904Z,17.73
2019-06-07T07:58:57.959Z,17.83
2019-06-07T08:00:06.104Z,17.91
2019-06-07T08:01:00.365Z,17.98
2019-06-07T08:01:55.536Z,17.96
2019-06-07T08:02:53.754Z,17.99
2019-06-07T08:03:54.903Z,18.02
2019-06-07T08:05:20.670Z,18.17
2019-06-07T08:05:54.914Z,17.99
2019-06-07T08:06:54.733Z,18.13
2019-06-07T08:07:56.563Z,18.28
2019-06-07T08:08:55.769Z,18.29
2019-06-07T08:09:59.511Z,18.32
2019-06-07T08:10:58.060Z,18.35
2019-06-07T08:11:59.610Z,18.49
2019-06-07T08:13:16.247Z,18.32
2019-06-07T08:13:56.713Z,18.53
2019-06-07T08:14:57.529Z,18.62
2019-06-07T08:15:58.621Z,18.68
2019-06-07T08:16:54.382Z,18.72
2019-06-07T08:17:58.102Z,18.78
2019-06-07T08:18:57.478Z,18.84
2019-06-07T08:19:55.030Z,19.02
2019-06-07T08:21:17.206Z,19.01
2019-06-07T08:21:55.521Z,19.21
2019-06-07T08:22:58.850Z,18.89
2019-06-07T08:23:58.270Z,18.94
2019-06-07T08:24:55.323Z,19.13
2019-06-07T08:25:58.497Z,19.01
2019-06-07T08:27:17.713Z,19.17
2019-06-07T08:27:56.817Z,19.21
2019-06-07T08:28:58.506Z,18.93
2019-06-07T08:30:07.840Z,18.82
2019-06-07T08:31:03.409Z,19.02
2019-06-07T08:31:56.318Z,19.34
2019-06-07T08:32:58.424Z,19.57
2019-06-07T08:33:57.056Z,19.70
2019-06-07T08:34:59.657Z,19.85
2019-06-07T08:36:10.465Z,19.92
2019-06-07T08:36:58.394Z,19.83
2019-06-07T08:38:22.105Z,20.04
2019-06-07T08:38:57.882Z,20.00
2019-06-07T08:39:56.770Z,19.89
2019-06-07T08:41:02.247Z,19.89
2019-06-07T08:42:13.363Z,20.01
2019-06-07T08:43:19.620Z,20.12
2019-06-07T08:43:56.810Z,20.00
2019-06-07T08:45:01.613Z,19.83
2019-06-07T08:46:01.171Z,19.72
2019-06-07T08:47:12.564Z,19.65
2019-06-07T08:47:58.021Z,19.60
2019-06-07T08:48:57.175Z,19.71
2019-06-07T08:49:59.587Z,19.83
2019-06-07T08:50:58.736Z,20.05
2019-06-07T08:52:04.516Z,20.04
2019-06-07T08:53:02.858Z,20.13
2019-06-07T08:54:15.852Z,20.15
2019-06-07T08:54:57.835Z,20.16
2019-06-07T08:56:04.413Z,20.23
2019-06-07T08:57:13.222Z,20.31
2019-06-07T08:58:03.413Z,20.40
2019-06-07T08:59:00.425Z,20.54
2019-06-07T08:59:59.038Z,20.71
2019-06-07T09:00:59.385Z,20.88
2019-06-07T09:01:59.806Z,20.91
2019-06-07T09:02:58.917Z,20.98
2019-06-07T09:04:02.622Z,21.01
2019-06-07T09:04:59.211Z,20.88
2019-06-07T09:05:57.080Z,20.75
2019-06-07T09:07:14.836Z,20.81
2019-06-07T09:08:22.273Z,20.93
2019-06-07T09:09:00.386Z,20.98
2019-06-07T09:10:01.867Z,20.94
2019-06-07T09:10:58.926Z,21.05
2019-06-07T09:11:59.411Z,21.09
2019-06-07T09:13:00.321Z,21.00
2019-06-07T09:13:57.720Z,21.03
2019-06-07T09:15:12.066Z,21.06
2019-06-07T09:16:03.429Z,21.08
2019-06-07T09:17:04.327Z,21.16
2019-06-07T09:18:34.867Z,21.22
2019-06-07T09:18:58.981Z,21.37
2019-06-07T09:19:59.035Z,21.48
2019-06-07T09:20:58.226Z,21.59
2019-06-07T09:22:01.587Z,21.64
2019-06-07T09:23:01.705Z,21.66
2019-06-07T09:24:02.502Z,21.70
2019-06-07T09:25:04.310Z,21.64
2019-06-07T09:26:08.037Z,21.71
2019-06-07T09:26:58.321Z,21.86
2019-06-07T09:28:00.537Z,21.99
2019-06-07T09:28:58.452Z,21.91
2019-06-07T09:30:03.172Z,21.96
2019-06-07T09:30:59.754Z,22.04
2019-06-07T09:32:00.612Z,22.05
2019-06-07T09:32:58.966Z,22.05
2019-06-07T09:34:05.872Z,22.21
2019-06-07T09:35:03.910Z,22.31
2019-06-07T09:36:00.393Z,22.27
2019-06-07T09:37:03.430Z,22.27
2019-06-07T09:38:18.195Z,22.21
2019-06-07T09:38:59.554Z,22.19
2019-06-07T09:40:05.741Z,22.30
2019-06-07T09:41:00.446Z,22.17
2019-06-07T09:42:00.481Z,22.24
2019-06-07T09:43:47.591Z,22.11
2019-06-07T09:44:18.973Z,22.12
2019-06-07T09:45:03.190Z,22.31
2019-06-07T09:46:01.020Z,22.42
2019-06-07T09:47:20.145Z,22.66
2019-06-07T09:48:02.291Z,22.70
2019-06-07T09:49:13.925Z,22.60
2019-06-07T09:50:04.091Z,22.60
2019-06-07T09:51:01.968Z,22.67
2019-06-07T09:52:00.518Z,22.63
2019-06-07T09:53:16.212Z,22.81
2019-06-07T09:54:01.266Z,22.78
2019-06-07T09:55:09.311Z,22.93
2019-06-07T09:56:05.626Z,22.72
2019-06-07T09:57:02.662Z,22.74
2019-06-07T09:58:03.782Z,22.84
2019-06-07T09:59:02.863Z,22.88
2019-06-07T10:00:01.840Z,22.85
2019-06-07T10:01:04.460Z,22.88
2019-06-07T10:02:01.462Z,23.01
2019-06-07T10:03:08.865Z,23.19
2019-06-07T10:04:04.658Z,23.06
2019-06-07T10:05:04.081Z,23.23
2019-06-07T10:06:03.439Z,23.41
2019-06-07T10:07:09.044Z,23.39
2019-06-07T10:08:15.408Z,23.52
2019-06-07T10:10:07.123Z,23.50
2019-06-07T10:11:00.353Z,23.74
2019-06-07T10:12:00.399Z,23.67
2019-06-07T10:13:01.649Z,23.62
2019-06-07T10:14:00.381Z,23.87
2019-06-07T10:15:00.688Z,24.06
2019-06-07T10:16:00.877Z,24.42
2019-06-07T10:17:00.915Z,24.45
2019-06-07T10:18:00.795Z,24.48
2019-06-07T10:19:01.610Z,24.42
2019-06-07T10:20:02.594Z,24.92
2019-06-07T10:21:01.442Z,25.44
2019-06-07T10:22:01.347Z,25.66
2019-06-07T10:23:01.643Z,26.12
2019-06-07T10:24:01.275Z,26.12
2019-06-07T10:25:02.070Z,26.47
2019-06-07T10:26:01.590Z,26.28
2019-06-07T10:27:01.742Z,26.32
2019-06-07T10:28:01.839Z,25.94
2019-06-07T10:29:01.885Z,25.74
2019-06-07T10:30:02.331Z,25.69
2019-06-07T10:31:02.088Z,25.72
2019-06-07T10:32:02.256Z,25.66
2019-06-07T10:33:02.232Z,25.56
2019-06-07T10:34:02.329Z,25.44
2019-06-07T10:35:03.281Z,25.56
2019-06-07T10:36:02.494Z,26.03
2019-06-07T10:37:03.318Z,26.32
2019-06-07T10:38:02.467Z,27.11
2019-06-07T10:39:02.915Z,27.49
2019-06-07T10:40:02.896Z,27.53
2019-06-07T10:41:02.844Z,27.16
2019-06-07T10:42:04.150Z,27.71
2019-06-07T10:43:03.172Z,28.17
2019-06-07T10:44:03.307Z,27.46
2019-06-07T10:45:04.470Z,27.43
2019-06-07T10:46:03.653Z,27.52
2019-06-07T10:47:03.991Z,27.58
2019-06-07T10:48:03.572Z,27.01
2019-06-07T10:49:03.819Z,26.17
2019-06-07T10:50:03.863Z,25.71
2019-06-07T10:51:04.179Z,25.22
2019-06-07T10:52:05.039Z,24.99
2019-06-07T10:53:04.292Z,24.75
2019-06-07T10:54:10.696Z,24.80
2019-06-07T10:55:04.471Z,24.44
2019-06-07T10:56:04.810Z,24.29
2019-06-07T10:57:04.832Z,23.89
2019-06-07T10:58:04.726Z,23.69
2019-06-07T10:59:05.107Z,23.75
2019-06-07T11:00:05.204Z,23.87
2019-06-07T11:01:05.172Z,23.90
2019-06-07T11:02:05.596Z,23.81
2019-06-07T11:03:05.836Z,23.92
2019-06-07T11:04:05.621Z,23.81
2019-06-07T11:05:05.785Z,23.84
2019-06-07T11:06:05.613Z,23.67
2019-06-07T11:07:06.275Z,23.78
2019-06-07T11:08:04.130Z,23.72
2019-06-07T11:09:04.201Z,23.62
2019-06-07T11:10:10.687Z,23.89
2019-06-07T11:11:04.328Z,24.02
2019-06-07T11:12:06.298Z,24.27
2019-06-07T11:13:06.093Z,24.33
2019-06-07T11:14:06.453Z,24.51
2019-06-07T11:15:04.647Z,24.66
2019-06-07T11:16:04.785Z,24.79
2019-06-07T11:17:05.244Z,24.00
2019-06-07T11:18:06.119Z,23.84
2019-06-07T11:19:06.048Z,23.39
2019-06-07T11:20:06.048Z,23.38
2019-06-07T11:21:06.038Z,23.39
2019-06-07T11:22:06.070Z,23.50
2019-06-07T11:23:06.685Z,23.57
2019-06-07T11:24:06.140Z,23.67
2019-06-07T11:25:06.887Z,23.47
2019-06-07T11:26:06.174Z,23.59
2019-06-07T11:27:07.130Z,23.72
2019-06-07T11:28:06.333Z,23.78
2019-06-07T11:29:06.638Z,23.74
2019-06-07T11:30:06.229Z,23.75
2019-06-07T11:31:06.337Z,23.60
2019-06-07T11:32:06.358Z,23.62
2019-06-07T11:33:06.412Z,23.38
2019-06-07T11:34:06.328Z,23.03
2019-06-07T11:35:06.391Z,22.78
2019-06-07T11:36:06.682Z,22.46
2019-06-07T11:37:07.346Z,22.42
2019-06-07T11:38:06.390Z,22.30
2019-06-07T11:39:06.514Z,22.41
2019-06-07T11:40:07.866Z,22.29
2019-06-07T11:41:07.346Z,22.19
2019-06-07T11:42:07.796Z,22.31
2019-06-07T11:43:06.676Z,22.29
2019-06-07T11:44:06.724Z,22.17
2019-06-07T11:45:07.791Z,22.21
2019-06-07T11:46:06.752Z,22.29
2019-06-07T11:47:08.117Z,22.27
2019-06-07T11:48:07.186Z,22.23
2019-06-07T11:49:08.172Z,22.27
2019-06-07T11:50:07.287Z,22.26
2019-06-07T11:51:07.256Z,22.15
2019-06-07T11:52:07.308Z,22.27
2019-06-07T11:53:08.514Z,22.38
2019-06-07T11:54:07.769Z,22.27
2019-06-07T11:55:08.826Z,22.24
2019-06-07T11:56:07.864Z,22.31
2019-06-07T11:57:07.307Z,22.29
2019-06-07T11:58:11.644Z,22.27
2019-06-07T11:59:07.434Z,22.24
2019-06-07T12:00:07.496Z,22.36
2019-06-07T12:01:08.046Z,22.56
2019-06-07T12:02:07.622Z,22.94
2019-06-07T12:03:07.686Z,23.21
2019-06-07T12:04:07.748Z,23.22
2019-06-07T12:05:07.812Z,23.18
2019-06-07T12:06:08.324Z,23.25
2019-06-07T12:07:10.849Z,23.45
2019-06-07T12:08:08.088Z,23.75
2019-06-07T12:09:08.579Z,23.94
2019-06-07T12:10:08.570Z,24.14
2019-06-07T12:11:08.194Z,24.15
2019-06-07T12:12:08.258Z,24.30
2019-06-07T12:13:08.436Z,24.44
2019-06-07T12:14:08.708Z,24.97
2019-06-07T12:15:08.868Z,25.45
2019-06-07T12:16:09.081Z,25.45
2019-06-07T12:17:09.014Z,25.79
2019-06-07T12:18:09.200Z,25.27
2019-06-07T12:19:09.688Z,25.61
2019-06-07T12:20:10.799Z,24.90
2019-06-07T12:21:09.566Z,24.93
2019-06-07T12:22:09.859Z,25.29
2019-06-07T12:23:10.007Z,25.57
2019-06-07T12:24:10.332Z,25.72
2019-06-07T12:25:10.374Z,25.53
2019-06-07T12:26:10.255Z,25.64
2019-06-07T12:27:10.288Z,25.60
2019-06-07T12:28:10.633Z,25.60
2019-06-07T12:29:10.657Z,25.42
2019-06-07T12:30:15.454Z,25.24
2019-06-07T12:31:10.758Z,25.34
2019-06-07T12:32:09.584Z,25.22
2019-06-07T12:33:09.651Z,25.17
2019-06-07T12:34:09.714Z,25.83
2019-06-07T12:35:09.783Z,27.09
2019-06-07T12:36:09.853Z,27.58
2019-06-07T12:37:09.915Z,28.24
2019-06-07T12:38:09.985Z,28.28
2019-06-07T12:39:10.051Z,28.85
2019-06-07T12:40:10.212Z,28.73
2019-06-07T12:41:10.191Z,28.20
2019-06-07T12:42:10.258Z,27.93
2019-06-07T12:43:10.326Z,28.33
2019-06-07T12:44:10.417Z,28.79
2019-06-07T12:45:10.467Z,29.15
2019-06-07T12:46:14.482Z,29.66
2019-06-07T12:47:10.606Z,29.08
2019-06-07T12:48:10.682Z,29.14
2019-06-07T12:49:10.746Z,29.30
2019-06-07T12:50:10.818Z,28.21
2019-06-07T12:51:10.888Z,27.49
2019-06-07T12:52:13.812Z,27.35
2019-06-07T12:53:11.075Z,27.03
2019-06-07T12:54:11.119Z,26.86
2019-06-07T12:55:11.172Z,26.71
2019-06-07T12:56:11.244Z,27.30
2019-06-07T12:57:11.317Z,26.79
2019-06-07T12:58:11.989Z,26.65
2019-06-07T12:59:12.027Z,27.39
2019-06-07T13:00:11.539Z,27.74
2019-06-07T13:01:12.315Z,27.02
2019-06-07T13:02:12.240Z,26.79
2019-06-07T13:03:11.747Z,27.40
2019-06-07T13:04:12.313Z,27.90
2019-06-07T13:06:11.965Z,28.20
2019-06-07T13:07:12.041Z,29.11
2019-06-07T13:08:12.109Z,28.79
2019-06-07T13:09:12.181Z,28.42